Latest Weather Observations for Cooma Airport

IDN60801

Issued at 3:32 pm EST Thursday 28 May 2020 (issued every 10 minutes, with the page automatically refreshed every 10 minutes)

About weather observations | Map of weather stations | Latest weather observations for NSW | Other Formats
Station Details ID: 070217 Name: COOMA AIRPORT AWS Lat: -36.29 Lon: 148.97 Height: 930.0 m
Data from the previous 72 hours. | See also: Recent months at Cooma Airport
Date/Time
EST
Temp
°C
App
Temp
°C
Dew
Point
°C
Rel
Hum
%
Delta-T
°C
Wind Press
QNH
hPa
Press
MSL
hPa
Rain since
9am
mm
Dir  Spd
km/h
Gust
km/h
Spd
kts
Gust
kts
28/03:30pm 13.1 9.5 2.9 50 4.7 SSW 11 13 6 7 1020.7 1021.0 0.0
28/03:00pm 13.1 10.2 2.6 49 4.9 SSW 7 9 4 5 1020.5 1020.7 0.0
28/02:30pm 13.6 9.8 1.9 45 5.4 SSW 11 17 6 9 1020.5 1020.7 0.0
28/02:00pm 13.9 11.1 2.2 45 5.4 SSW 6 11 3 6 1020.4 1020.6 0.0
28/01:30pm 14.7 11.9 2.9 45 5.6 E 7 13 4 7 1020.4 1020.6 0.0
28/01:00pm 13.4 10.8 3.2 50 4.8 SSE 6 15 3 8 1020.6 1020.9 0.0
28/12:30pm 13.8 11.4 4.1 52 4.7 NNE 6 11 3 6 1020.9 1021.2 0.0
28/12:00pm 12.9 10.8 3.8 54 4.3 NNE 4 9 2 5 1021.4 1021.6 0.0
28/11:30am 12.5 10.0 4.5 58 3.8 ENE 7 11 4 6 1021.8 1022.1 0.0
28/11:00am 11.4 8.5 4.8 64 3.2 NE 9 13 5 7 1022.1 1022.4 0.0
28/10:30am 10.5 7.8 5.7 72 2.3 ENE 9 13 5 7 1022.3 1022.6 0.0
28/10:00am 8.9 6.2 5.5 79 1.6 NE 9 13 5 7 1022.3 1022.6 0.0
28/09:30am 7.7 4.4 6.2 90 0.7 NE 13 17 7 9 1022.3 1022.6 0.0
28/09:00am 6.6 4.5 6.5 99 0.0 NE 7 9 4 5 1022.2 1022.5 0.0
28/08:30am 5.2 3.7 5.2 100 0.0 N 2 7 1 4 1022.1 1022.4 0.0
28/08:00am 2.1 -0.9 2.1 100 0.0 N 7 7 4 4 1021.8 1022.1 0.0
28/07:30am 0.2 -2.1 0.1 99 0.0 NE 2 7 1 4 1021.6 1021.9 0.0
28/07:00am 0.8 -1.8 0.7 99 0.0 NNE 4 7 2 4 1021.4 1021.6 0.0
28/06:30am 1.5 -1.6 1.5 100 0.0 NNW 7 9 4 5 1021.0 1021.3 0.0
28/06:00am 1.5 -1.6 1.5 100 0.0 N 7 11 4 6 1020.9 1021.2 0.0
28/05:30am 1.4 -0.7 1.4 100 0.0 N 2 7 1 4 1020.6 1020.9 0.0
28/05:00am 1.5 -0.3 1.4 99 0.0 CALM 0 0 0 0 1020.5 1020.7 0.0
28/04:30am 1.0 -0.8 0.9 99 0.0 CALM 0 0 0 0 1020.4 1020.6 0.0
28/04:00am 2.3 0.7 2.2 99 0.0 CALM 0 0 0 0 1020.4 1020.6 0.0
28/03:30am 3.1 0.3 3.1 100 0.0 N 7 9 4 5 1020.3 1020.5 0.0
28/03:00am 1.8 -1.2 1.7 99 0.0 E 7 11 4 6 1020.4 1020.6 0.0
28/02:30am 2.7 -1.0 2.6 99 0.0 NE 11 11 6 6 1020.5 1020.7 0.0
28/02:00am 3.5 0.0 3.4 99 0.0 NNE 11 13 6 7 1020.5 1020.7 0.0
28/01:30am 3.7 2.3 3.6 99 0.0 CALM 0 0 0 0 1020.6 1020.9 0.0
28/01:00am 3.7 1.0 3.7 100 0.0 NNW 7 9 4 5 1020.4 1020.6 0.0
28/12:30am 2.2 -0.8 2.1 99 0.0 NE 7 7 4 4 1020.6 1020.9 0.0
28/12:00am 2.9 1.4 2.8 99 0.0 CALM 0 0 0 0 1020.7 1021.0 0.0
 
Date/Time
EST
Temp
°C
App
Temp
°C
Dew
Point
°C
Rel
Hum
%
Delta-T
°C
Wind Press
QNH
hPa
Press
MSL
hPa
Rain since
9am
mm
Dir  Spd
km/h
Gust
km/h
Spd
kts
Gust
kts
27/11:30pm 4.0 1.5 3.9 99 0.0 NNW 6 9 3 5 1020.8 1021.1 0.0
27/11:00pm 2.8 -0.5 2.7 99 0.0 NNE 9 11 5 6 1020.6 1020.9 0.0
27/10:30pm 3.4 0.2 3.3 99 0.0 N 9 9 5 5 1020.7 1021.0 0.0
27/10:00pm 3.7 1.9 3.7 100 0.0 NE 2 7 1 4 1020.7 1021.0 0.0
27/09:30pm 2.3 -1.0 2.2 99 0.0 NNE 9 13 5 7 1021.0 1021.3 0.0
27/09:00pm 2.1 0.0 2.0 99 0.0 WSW 2 7 1 4 1020.9 1021.2 0.0
27/08:30pm 2.9 1.0 2.8 99 0.0 N 2 7 1 4 1020.9 1021.2 0.0
27/08:00pm 3.1 1.5 2.4 95 0.3 CALM 0 0 0 0 1020.9 1021.2 0.0
27/07:30pm 4.4 2.7 3.8 96 0.3 ENE 2 6 1 3 1020.7 1021.0 0.0
27/07:00pm 5.6 4.4 4.6 93 0.5 CALM 0 0 0 0 1020.5 1020.7 0.0
27/06:30pm 5.8 4.4 3.8 87 0.9 CALM 0 0 0 0 1020.5 1020.7 0.0
27/06:00pm 8.1 6.9 4.7 79 1.6 CALM 0 0 0 0 1020.2 1020.4 0.0
27/05:30pm 9.3 8.2 4.9 74 2.1 CALM 0 0 0 0 1020.2 1020.4 0.0
27/05:00pm 10.3 7.9 5.3 71 2.4 SSW 7 9 4 5 1019.9 1020.2 0.0
27/04:30pm 11.5 7.4 4.5 62 3.3 S 15 17 8 9 1019.7 1020.0 0.0
27/04:00pm 12.7 9.0 4.7 58 3.9 S 13 17 7 9 1019.8 1020.1 0.0
27/03:30pm 12.4 8.6 3.9 56 4.0 S 13 17 7 9 1019.9 1020.2 0.0
27/03:00pm 12.6 9.1 3.6 54 4.2 SSW 11 15 6 8 1019.8 1020.1 0.0
27/02:30pm 13.8 10.3 3.3 49 5.0 SSW 11 17 6 9 1019.8 1020.1 0.0
27/02:00pm 14.1 11.8 2.7 46 5.3 W 4 11 2 6 1019.9 1020.2 0.0
27/01:30pm 13.8 10.8 4.1 52 4.7 WSW 9 15 5 8 1020.3 1020.5 0.0
27/01:00pm 12.8 10.9 4.8 58 3.9 NW 4 9 2 5 1020.5 1020.7 0.0
27/12:30pm 12.4 10.7 4.1 57 4.0 W 2 6 1 3 1020.8 1021.1 0.0
27/12:00pm 12.2 9.3 4.9 61 3.5 NE 9 13 5 7 1021.3 1021.5 0.0
27/11:30am 10.6 7.0 5.2 69 2.6 NE 13 17 7 9 1021.9 1022.2 0.0
27/11:00am 9.3 5.3 5.1 75 2.0 NNE 15 17 8 9 1022.3 1022.6 0.0
27/10:30am 7.9 3.9 4.7 80 1.5 NE 15 19 8 10 1022.6 1022.9 0.0
27/10:00am 7.0 3.6 5.9 93 0.5 ENE 13 15 7 8 1022.8 1023.1 0.0
27/09:30am 5.0 1.8 5.0 100 0.0 NE 11 13 6 7 1023.0 1023.3 0.0
27/09:00am 2.6 -0.7 2.6 100 0.0 NE 9 11 5 6 1023.0 1023.3 0.2
27/08:30am 0.9 -2.3 0.9 100 0.0 N 7 9 4 5 1023.0 1023.3 0.0
27/08:12am 0.3 -3.3 0.3 100 0.0 NNE 9 11 5 6 1022.9 1023.2 0.0
27/08:00am 0.3 -3.3 0.3 100 0.0 N 9 11 5 6 1022.9 1023.2 0.0
27/07:30am -0.8 -4.0 -0.8 100 0.0 NNE 6 9 3 5 1023.0 1023.3 0.0
27/07:00am -1.6 -5.1 -1.6 100 0.0 NNE 7 9 4 5 1022.9 1023.2 0.0
27/06:42am -2.2 -6.2 -2.2 100 0.0 NNE 9 11 5 6 1022.8 1023.1 0.0
27/06:40am -2.1 -6.1 -2.1 100 0.0 NNE 9 11 5 6 1022.7 1023.0 0.0
27/06:30am -2.2 -5.8 -2.2 100 0.0 NNE 7 9 4 5 1022.6 1022.9 0.0
27/06:22am -2.2 -5.6 -2.2 100 0.0 N 6 7 3 4 1022.6 1022.9 0.0
27/06:00am -1.2 -4.7 -1.2 100 0.0 NNE 7 9 4 5 1022.7 1023.0 0.0
27/05:30am -0.1 -3.4 -0.1 100 0.0 NNE 7 7 4 4 1022.7 1023.0 0.0
27/05:20am -0.3 -3.7 -0.3 100 0.0 NE 7 9 4 5 1022.8 1023.1 0.0
27/05:19am -0.5 -3.9 -0.5 100 0.0 NE 7 9 4 5 1022.8 1023.1 0.0
27/05:00am -0.2 -3.5 -0.2 100 0.0 NE 7 11 4 6 1022.9 1023.2 0.0
27/04:30am -1.5 -4.5 -1.5 100 0.0 NNE 4 11 2 6 1022.9 1023.2 0.0
27/04:00am -1.0 -3.9 -1.0 100 0.0 NE 4 7 2 4 1023.1 1023.4 0.0
27/03:30am 0.7 -2.9 0.7 100 0.0 N 9 9 5 5 1023.3 1023.7 0.0
27/03:00am -0.8 -3.3 -0.9 99 0.0 WNW 2 9 1 5 1023.6 1023.9 0.0
27/02:30am 0.0 -3.1 -0.1 99 0.0 N 6 7 3 4 1023.9 1024.2 0.0
27/02:23am 0.2 -2.5 0.1 99 0.0 N 4 7 2 4 1023.9 1024.2 0.0
27/02:00am 0.0 -2.4 -0.1 99 0.0 NNE 2 6 1 3 1024.0 1024.3 0.0
27/01:30am 1.3 -0.5 1.2 99 0.0 CALM 0 0 0 0 1024.3 1024.7 0.0
27/01:00am 1.5 -0.3 1.4 99 0.0 CALM 0 0 0 0 1024.5 1024.9 0.0
27/12:51am 1.5 -0.3 1.4 99 0.0 CALM 0 0 0 0 1024.4 1024.8 0.0
27/12:30am 3.1 1.6 3.1 100 0.0 CALM 0 4 0 2 1024.8 1025.1 0.0
27/12:00am 3.4 2.0 3.4 100 0.0 CALM 0 0 0 0 1025.0 1025.3 0.0
 
Date/Time
EST
Temp
°C
App
Temp
°C
Dew
Point
°C
Rel
Hum
%
Delta-T
°C
Wind Press
QNH
hPa
Press
MSL
hPa
Rain since
9am
mm
Dir  Spd
km/h
Gust
km/h
Spd
kts
Gust
kts
26/11:30pm 3.2 1.7 3.2 100 0.0 CALM 0 0 0 0 1025.1 1025.4 0.0
26/11:00pm 3.0 1.5 3.0 100 0.0 CALM 0 4 0 2 1025.3 1025.7 0.0
26/10:30pm 2.6 0.6 2.5 99 0.0 ENE 2 9 1 5 1025.4 1025.8 0.0
26/10:00pm 2.8 1.2 2.7 99 0.0 CALM 0 0 0 0 1025.4 1025.8 0.0
26/09:30pm 3.4 1.2 3.3 99 0.0 NNW 4 6 2 3 1025.5 1025.9 0.0
26/09:00pm 3.7 2.3 3.6 99 0.0 CALM 0 0 0 0 1025.3 1025.7 0.0
26/08:30pm 4.5 2.9 4.4 99 0.0 NNE 2 7 1 4 1025.3 1025.7 0.0
26/08:00pm 4.3 3.0 4.2 99 0.0 CALM 0 0 0 0 1025.4 1025.8 0.0
26/07:30pm 4.0 1.5 3.9 99 0.0 N 6 7 3 4 1025.2 1025.6 0.0
26/07:00pm 4.7 3.5 4.6 99 0.0 CALM 0 0 0 0 1025.0 1025.3 0.0
26/06:30pm 4.5 3.1 3.5 93 0.4 CALM 0 0 0 0 1024.9 1025.2 0.0
26/06:00pm 5.5 4.2 4.2 91 0.6 CALM 0 0 0 0 1024.6 1025.0 0.0
26/05:30pm 5.9 3.8 3.9 87 0.9 ENE 4 9 2 5 1024.4 1024.8 0.0
26/05:00pm 7.0 4.4 4.1 82 1.3 E 7 11 4 6 1024.5 1024.9 0.0
26/04:30pm 8.4 6.1 4.8 78 1.7 ESE 6 7 3 4 1024.4 1024.8 0.0
26/04:00pm 9.5 5.9 4.9 73 2.2 ESE 13 17 7 9 1024.3 1024.7 0.0
26/03:30pm 10.5 7.2 4.6 67 2.8 E 11 15 6 8 1024.2 1024.5 0.0
26/03:00pm 10.5 7.4 5.5 71 2.4 ENE 11 17 6 9 1024.3 1024.7 0.0
26/02:30pm 10.5 8.3 5.5 71 2.4 E 6 11 3 6 1024.3 1024.7 0.0
26/02:00pm 10.1 7.9 7.7 85 1.2 ESE 9 17 5 9 1024.3 1024.7 0.0
26/01:30pm 9.7 6.9 8.6 93 0.6 SW 13 15 7 8 1024.6 1025.0 0.0
26/01:00pm 9.6 6.8 8.7 94 0.5 SSW 13 15 7 8 1025.0 1025.3 0.0
26/12:30pm 9.3 6.8 8.2 93 0.6 SSW 11 17 6 9 1025.2 1025.6 0.0
26/12:00pm 8.9 7.1 8.1 95 0.4 SSW 7 13 4 7 1025.7 1026.1 0.0
26/11:30am 8.6 6.4 7.7 94 0.5 SSW 9 13 5 7 1026.5 1026.9 0.0
26/11:00am 8.3 5.7 7.9 97 0.2 SSW 11 13 6 7 1026.7 1027.1 0.0
26/10:30am 8.0 5.0 7.9 99 0.1 SSW 13 17 7 9 1027.1 1027.5 0.0
26/10:00am 7.2 4.1 7.2 100 0.0 SW 13 19 7 10 1027.1 1027.5 0.0
26/09:30am 6.3 2.2 6.3 100 0.0 SW 17 20 9 11 1027.1 1027.5 0.0
26/09:07am 6.2 1.7 6.2 100 0.0 SSW 19 22 10 12 1026.9 1027.3 0.0
26/09:00am 6.3 1.8 6.3 100 0.0 SW 19 22 10 12 1027.1 1027.5 1.0
26/08:42am 5.9 1.4 5.9 100 0.0 SW 19 22 10 12 1026.9 1027.3 1.0
26/08:30am 5.5 0.9 5.5 100 0.0 SW 19 22 10 12 1026.9 1027.3 1.0
26/08:00am 5.3 0.6 5.3 100 0.0 SW 19 20 10 11 1026.7 1027.1 1.0
26/07:30am 5.2 0.9 5.2 100 0.0 SW 17 19 9 10 1026.4 1026.8 1.0
26/07:00am 5.0 0.3 5.0 100 0.0 SW 19 20 10 11 1026.1 1026.5 1.0
26/06:58am 5.0 0.3 5.0 100 0.0 SW 19 20 10 11 1026.1 1026.5 1.0
26/06:43am 5.1 0.8 5.1 100 0.0 SW 17 20 9 11 1026.0 1026.3 1.0
26/06:30am 5.1 0.8 5.1 100 0.0 SW 17 20 9 11 1026.0 1026.3 1.0
26/06:00am 5.1 1.1 5.1 100 0.0 SW 15 19 8 10 1025.8 1026.2 1.0
26/05:46am 5.1 1.1 5.1 100 0.0 SW 15 19 8 10 1025.5 1025.9 1.0
26/05:30am 5.1 1.1 5.1 100 0.0 SW 15 19 8 10 1025.5 1025.9 1.0
26/05:21am 5.1 1.1 5.1 100 0.0 SW 15 19 8 10 1025.4 1025.8 1.0
26/05:18am 5.0 1.0 5.0 100 0.0 SW 15 19 8 10 1025.4 1025.8 1.0
26/05:01am 5.0 1.4 5.0 100 0.0 WSW 13 17 7 9 1025.2 1025.6 1.0
26/05:00am 5.0 1.4 5.0 100 0.0 WSW 13 17 7 9 1025.2 1025.6 1.0
26/04:58am 5.0 1.4 5.0 100 0.0 WSW 13 19 7 10 1025.2 1025.6 1.0
26/04:30am 5.0 1.0 5.0 100 0.0 WSW 15 20 8 11 1025.2 1025.6 1.0
26/04:19am 5.1 0.8 5.1 100 0.0 SW 17 20 9 11 1025.2 1025.6 1.0
26/04:00am 5.2 0.5 5.2 100 0.0 SW 19 20 10 11 1025.3 1025.7 1.0
26/03:30am 5.2 0.9 5.1 99 0.0 SW 17 20 9 11 1025.4 1025.8 1.0
26/03:00am 5.2 0.5 5.1 99 0.0 SW 19 22 10 12 1025.6 1026.0 1.0
26/02:30am 5.1 0.2 5.1 100 0.0 SW 20 24 11 13 1025.6 1026.0 1.0
26/02:17am 5.0 0.1 4.9 99 0.0 SW 20 24 11 13 1025.6 1026.0 1.0
26/02:00am 4.9 0.0 4.9 100 0.0 SW 20 28 11 15 1025.6 1026.0 1.0
26/01:30am 4.6 -0.2 4.6 100 0.0 SW 19 20 10 11 1025.6 1026.0 1.0
26/01:00am 4.6 0.5 4.6 100 0.0 SW 15 19 8 10 1026.0 1026.3 1.0
26/12:30am 4.5 0.8 4.5 100 0.0 SW 13 15 7 8 1026.0 1026.3 1.0
26/12:07am 4.6 0.5 4.6 100 0.0 WSW 15 19 8 10 1025.6 1026.0 1.0
26/12:05am 4.7 0.7 4.7 100 0.0 WSW 15 19 8 10 1025.6 1026.0 1.0
26/12:00am 4.8 0.8 4.8 100 0.0 SW 15 19 8 10 1025.7 1026.1 1.0
 
Date/Time
EST
Temp
°C
App
Temp
°C
Dew
Point
°C
Rel
Hum
%
Delta-T
°C
Wind Press
QNH
hPa
Press
MSL
hPa
Rain since
9am
mm
Dir  Spd
km/h
Gust
km/h
Spd
kts
Gust
kts
25/11:41pm 4.9 0.5 4.9 100 0.0 SSW 17 19 9 10 1025.8 1026.2 1.0
25/11:39pm 4.8 0.4 4.8 100 0.0 SSW 17 19 9 10 1025.8 1026.2 1.0
25/11:34pm 5.0 1.0 5.0 100 0.0 SSW 15 19 8 10 1026.0 1026.3 1.0
25/11:30pm 4.9 0.9 4.9 100 0.0 SSW 15 19 8 10 1026.0 1026.3 1.0
25/11:27pm 4.9 0.5 4.9 100 0.0 SSW 17 22 9 12 1026.0 1026.3 1.0
25/11:12pm 5.0 0.6 5.0 100 0.0 SW 17 20 9 11 1026.0 1026.3 1.0
25/11:00pm 5.0 0.3 5.0 100 0.0 SSW 19 20 10 11 1025.7 1026.1 1.0
25/10:47pm 5.1 1.1 5.1 100 0.0 SSW 15 19 8 10 1025.7 1026.1 1.0
25/10:30pm 5.3 1.8 5.3 100 0.0 SSW 13 17 7 9 1026.0 1026.3 1.0
25/10:00pm 5.3 1.8 5.3 100 0.0 SSW 13 15 7 8 1026.0 1026.3 0.6
25/09:42pm 5.3 1.8 5.3 100 0.0 SSW 13 19 7 10 1025.8 1026.2 0.2
25/09:41pm 5.3 1.4 5.3 100 0.0 SSW 15 19 8 10 1025.8 1026.2 0.2
25/09:30pm 5.3 1.8 5.3 100 0.0 SW 13 15 7 8 1025.7 1026.1 0.2
25/09:24pm 5.4 1.9 5.4 100 0.0 SW 13 17 7 9 1025.8 1026.2 0.2
25/09:05pm 5.4 2.3 5.4 100 0.0 SSW 11 15 6 8 1025.8 1026.2 0.2
25/09:00pm 5.4 2.3 5.4 100 0.0 SSW 11 13 6 7 1025.7 1026.1 0.2
25/08:30pm 5.2 1.6 5.1 99 0.0 SSW 13 15 7 8 1025.6 1026.0 0.2
25/08:00pm 5.7 2.6 5.6 99 0.0 SSW 11 15 6 8 1025.4 1025.8 0.2
25/07:30pm 5.8 2.7 5.7 99 0.0 SSW 11 13 6 7 1025.0 1025.3 0.2
25/07:00pm 5.7 2.6 5.6 99 0.0 S 11 13 6 7 1024.6 1025.0 0.2
25/06:30pm 5.5 2.0 5.4 99 0.0 SSW 13 13 7 7 1024.3 1024.7 0.2
25/06:00pm 5.5 0.7 4.8 95 0.3 S 19 24 10 13 1023.9 1024.2 0.2
25/05:30pm 6.3 0.9 6.2 99 0.0 SSE 24 32 13 17 1023.4 1023.8 0.2
25/05:00pm 6.7 1.0 6.7 100 0.0 SSW 26 32 14 17 1022.9 1023.2 0.2
25/04:45pm 6.8 2.3 6.8 100 0.0 SSW 20 26 11 14 1022.9 1023.2 0.2
25/04:34pm 6.6 1.3 6.6 100 0.0 SSW 24 32 13 17 1022.8 1023.1 0.2
25/04:30pm 6.8 1.5 6.8 100 0.0 SSW 24 28 13 15 1022.8 1023.1 0.2
25/04:19pm 6.7 1.8 6.7 100 0.0 SSW 22 32 12 17 1022.7 1023.0 0.2
25/04:00pm 6.9 1.2 6.9 100 0.0 SSW 26 30 14 16 1022.7 1023.0 0.2
25/03:57pm 6.8 1.1 6.8 100 0.0 SSW 26 32 14 17 1022.6 1022.9 0.2
25/03:48pm 6.9 0.9 6.9 100 0.0 SSW 28 33 15 18 1022.6 1022.9 0.2

Other formats

Comma delimited format used in spreadsheet applications
http://www.bom.gov.au/fwo/IDN60801/IDN60801.94921.axf

JavaScript Object Notation format (JSON) in row-major order
http://www.bom.gov.au/fwo/IDN60801/IDN60801.94921.json

Data quality

Most of these data are generated automatically and are frequently updated. Quality checks on data are not normally performed. It is possible for incorrect values to appear. Refer to information at About Latest Weather Observations and please check the disclaimer before using these data.